sensor_id;sensor_type;location;lat;lon;timestamp;P1;durP1;ratioP1;P2;durP2;ratioP2
36989;SDS011;22898;52.102;5.776;2023-10-19T00:01:06;5.55;;;2.95;;
36989;SDS011;22898;52.102;5.776;2023-10-19T00:03:34;6.00;;;3.00;;
36989;SDS011;22898;52.102;5.776;2023-10-19T00:06:00;4.72;;;2.97;;
36989;SDS011;22898;52.102;5.776;2023-10-19T00:08:25;3.55;;;2.72;;
36989;SDS011;22898;52.102;5.776;2023-10-19T00:11:01;6.65;;;4.07;;
36989;SDS011;22898;52.102;5.776;2023-10-19T00:13:28;7.13;;;3.30;;
36989;SDS011;22898;52.102;5.776;2023-10-19T00:15:55;5.57;;;3.47;;
36989;SDS011;22898;52.102;5.776;2023-10-19T00:18:22;6.18;;;4.25;;
36989;SDS011;22898;52.102;5.776;2023-10-19T00:20:53;5.22;;;3.25;;
36989;SDS011;22898;52.102;5.776;2023-10-19T00:23:20;6.00;;;3.78;;
36989;SDS011;22898;52.102;5.776;2023-10-19T00:25:54;7.55;;;3.97;;
36989;SDS011;22898;52.102;5.776;2023-10-19T00:28:20;5.32;;;3.53;;
36989;SDS011;22898;52.102;5.776;2023-10-19T00:30:47;5.85;;;3.60;;
36989;SDS011;22898;52.102;5.776;2023-10-19T00:33:14;9.15;;;4.50;;
36989;SDS011;22898;52.102;5.776;2023-10-19T00:35:42;8.50;;;4.82;;
36989;SDS011;22898;52.102;5.776;2023-10-19T00:38:12;7.03;;;4.45;;
36989;SDS011;22898;52.102;5.776;2023-10-19T00:40:59;6.90;;;5.18;;
36989;SDS011;22898;52.102;5.776;2023-10-19T00:43:30;7.45;;;4.30;;
36989;SDS011;22898;52.102;5.776;2023-10-19T00:46:08;10.25;;;5.20;;
36989;SDS011;22898;52.102;5.776;2023-10-19T00:48:39;8.20;;;4.88;;
36989;SDS011;22898;52.102;5.776;2023-10-19T00:51:10;6.95;;;4.75;;
36989;SDS011;22898;52.102;5.776;2023-10-19T00:53:51;6.50;;;4.28;;
36989;SDS011;22898;52.102;5.776;2023-10-19T00:56:45;9.85;;;4.75;;
36989;SDS011;22898;52.102;5.776;2023-10-19T00:59:17;8.70;;;4.72;;
36989;SDS011;22898;52.102;5.776;2023-10-19T01:01:54;12.70;;;6.20;;
36989;SDS011;22898;52.102;5.776;2023-10-19T01:04:29;7.55;;;4.55;;
36989;SDS011;22898;52.102;5.776;2023-10-19T01:06:59;7.78;;;4.93;;
36989;SDS011;22898;52.102;5.776;2023-10-19T01:09:37;6.32;;;3.95;;
36989;SDS011;22898;52.102;5.776;2023-10-19T01:12:04;8.45;;;4.82;;
36989;SDS011;22898;52.102;5.776;2023-10-19T01:17:32;6.85;;;4.22;;
36989;SDS011;22898;52.102;5.776;2023-10-19T01:20:08;6.93;;;5.00;;
36989;SDS011;22898;52.102;5.776;2023-10-19T01:22:54;8.18;;;4.82;;
36989;SDS011;22898;52.102;5.776;2023-10-19T01:28:36;7.97;;;4.28;;
36989;SDS011;22898;52.102;5.776;2023-10-19T01:31:05;6.50;;;3.80;;
36989;SDS011;22898;52.102;5.776;2023-10-19T01:33:32;8.23;;;4.45;;
36989;SDS011;22898;52.102;5.776;2023-10-19T01:35:59;7.53;;;4.60;;
36989;SDS011;22898;52.102;5.776;2023-10-19T01:38:44;6.25;;;4.05;;
36989;SDS011;22898;52.102;5.776;2023-10-19T01:41:09;6.78;;;4.40;;
36989;SDS011;22898;52.102;5.776;2023-10-19T01:43:44;9.48;;;4.45;;
36989;SDS011;22898;52.102;5.776;2023-10-19T01:46:12;8.32;;;4.55;;
36989;SDS011;22898;52.102;5.776;2023-10-19T01:48:47;7.45;;;4.88;;
36989;SDS011;22898;52.102;5.776;2023-10-19T01:51:15;7.75;;;4.93;;
36989;SDS011;22898;52.102;5.776;2023-10-19T01:53:41;9.85;;;4.68;;
36989;SDS011;22898;52.102;5.776;2023-10-19T01:56:11;7.55;;;4.72;;
36989;SDS011;22898;52.102;5.776;2023-10-19T01:58:38;8.88;;;4.43;;
36989;SDS011;22898;52.102;5.776;2023-10-19T02:01:05;6.13;;;3.88;;
36989;SDS011;22898;52.102;5.776;2023-10-19T02:03:52;9.23;;;5.07;;
36989;SDS011;22898;52.102;5.776;2023-10-19T02:06:26;7.00;;;4.70;;
36989;SDS011;22898;52.102;5.776;2023-10-19T02:09:02;7.45;;;4.40;;
36989;SDS011;22898;52.102;5.776;2023-10-19T02:11:50;11.38;;;6.15;;
36989;SDS011;22898;52.102;5.776;2023-10-19T02:14:24;7.40;;;4.60;;
36989;SDS011;22898;52.102;5.776;2023-10-19T02:16:52;6.70;;;4.63;;
36989;SDS011;22898;52.102;5.776;2023-10-19T02:19:21;6.78;;;4.40;;
36989;SDS011;22898;52.102;5.776;2023-10-19T02:21:52;8.30;;;5.13;;
36989;SDS011;22898;52.102;5.776;2023-10-19T02:24:19;8.20;;;4.53;;
36989;SDS011;22898;52.102;5.776;2023-10-19T02:26:45;8.20;;;5.40;;
36989;SDS011;22898;52.102;5.776;2023-10-19T02:29:16;8.35;;;4.55;;
36989;SDS011;22898;52.102;5.776;2023-10-19T02:31:43;8.68;;;5.13;;
36989;SDS011;22898;52.102;5.776;2023-10-19T02:34:10;8.18;;;4.80;;
36989;SDS011;22898;52.102;5.776;2023-10-19T02:36:37;7.82;;;4.50;;
36989;SDS011;22898;52.102;5.776;2023-10-19T02:39:05;9.07;;;4.97;;
36989;SDS011;22898;52.102;5.776;2023-10-19T02:41:35;7.50;;;4.43;;
36989;SDS011;22898;52.102;5.776;2023-10-19T02:44:02;7.78;;;4.38;;
36989;SDS011;22898;52.102;5.776;2023-10-19T02:46:37;5.85;;;4.00;;
36989;SDS011;22898;52.102;5.776;2023-10-19T02:49:04;9.00;;;3.60;;
36989;SDS011;22898;52.102;5.776;2023-10-19T02:51:37;5.70;;;3.70;;
36989;SDS011;22898;52.102;5.776;2023-10-19T02:54:04;6.00;;;4.13;;
36989;SDS011;22898;52.102;5.776;2023-10-19T02:56:34;7.72;;;3.83;;
36989;SDS011;22898;52.102;5.776;2023-10-19T02:59:01;7.63;;;3.83;;
36989;SDS011;22898;52.102;5.776;2023-10-19T03:01:29;6.40;;;3.65;;
36989;SDS011;22898;52.102;5.776;2023-10-19T03:04:00;6.90;;;3.67;;
36989;SDS011;22898;52.102;5.776;2023-10-19T03:06:27;8.20;;;3.55;;
36989;SDS011;22898;52.102;5.776;2023-10-19T03:08:56;6.25;;;3.67;;
36989;SDS011;22898;52.102;5.776;2023-10-19T03:11:29;4.75;;;2.88;;
36989;SDS011;22898;52.102;5.776;2023-10-19T03:13:57;6.55;;;3.78;;
36989;SDS011;22898;52.102;5.776;2023-10-19T03:16:23;8.70;;;3.95;;
36989;SDS011;22898;52.102;5.776;2023-10-19T03:18:49;8.35;;;3.88;;
36989;SDS011;22898;52.102;5.776;2023-10-19T03:21:16;5.05;;;3.13;;
36989;SDS011;22898;52.102;5.776;2023-10-19T03:23:42;5.70;;;3.63;;
36989;SDS011;22898;52.102;5.776;2023-10-19T03:26:08;5.93;;;2.78;;
36989;SDS011;22898;52.102;5.776;2023-10-19T03:28:43;5.28;;;3.00;;
36989;SDS011;22898;52.102;5.776;2023-10-19T03:31:10;6.63;;;3.72;;
36989;SDS011;22898;52.102;5.776;2023-10-19T03:33:43;5.53;;;3.28;;
36989;SDS011;22898;52.102;5.776;2023-10-19T03:36:09;5.45;;;3.35;;
36989;SDS011;22898;52.102;5.776;2023-10-19T03:38:38;4.55;;;3.03;;
36989;SDS011;22898;52.102;5.776;2023-10-19T03:41:05;6.43;;;3.22;;
36989;SDS011;22898;52.102;5.776;2023-10-19T03:43:33;9.85;;;3.70;;
36989;SDS011;22898;52.102;5.776;2023-10-19T03:46:01;4.22;;;2.55;;
36989;SDS011;22898;52.102;5.776;2023-10-19T03:48:31;5.15;;;3.15;;
36989;SDS011;22898;52.102;5.776;2023-10-19T03:51:02;4.38;;;2.78;;
36989;SDS011;22898;52.102;5.776;2023-10-19T03:53:29;3.67;;;2.53;;
36989;SDS011;22898;52.102;5.776;2023-10-19T03:55:57;5.38;;;3.20;;
36989;SDS011;22898;52.102;5.776;2023-10-19T03:58:23;4.75;;;2.90;;
36989;SDS011;22898;52.102;5.776;2023-10-19T04:00:48;5.38;;;2.53;;
36989;SDS011;22898;52.102;5.776;2023-10-19T04:03:15;4.20;;;2.53;;
36989;SDS011;22898;52.102;5.776;2023-10-19T04:05:42;5.45;;;2.55;;
36989;SDS011;22898;52.102;5.776;2023-10-19T04:08:12;4.95;;;2.60;;
36989;SDS011;22898;52.102;5.776;2023-10-19T04:10:39;4.43;;;2.53;;
36989;SDS011;22898;52.102;5.776;2023-10-19T04:13:25;5.25;;;2.40;;
36989;SDS011;22898;52.102;5.776;2023-10-19T04:15:50;5.50;;;2.50;;
36989;SDS011;22898;52.102;5.776;2023-10-19T04:18:18;4.35;;;2.17;;
36989;SDS011;22898;52.102;5.776;2023-10-19T04:20:43;4.63;;;2.08;;
36989;SDS011;22898;52.102;5.776;2023-10-19T04:23:15;4.63;;;2.20;;
36989;SDS011;22898;52.102;5.776;2023-10-19T04:25:41;4.70;;;2.10;;
36989;SDS011;22898;52.102;5.776;2023-10-19T04:28:06;6.05;;;1.95;;
36989;SDS011;22898;52.102;5.776;2023-10-19T04:30:32;5.97;;;2.17;;
36989;SDS011;22898;52.102;5.776;2023-10-19T04:33:02;3.40;;;2.00;;
36989;SDS011;22898;52.102;5.776;2023-10-19T04:35:28;3.28;;;1.98;;
36989;SDS011;22898;52.102;5.776;2023-10-19T04:37:59;2.92;;;1.80;;
36989;SDS011;22898;52.102;5.776;2023-10-19T04:40:24;3.30;;;1.80;;
36989;SDS011;22898;52.102;5.776;2023-10-19T04:42:51;2.90;;;1.90;;
36989;SDS011;22898;52.102;5.776;2023-10-19T04:45:18;3.67;;;2.35;;
36989;SDS011;22898;52.102;5.776;2023-10-19T04:47:44;5.57;;;2.38;;
36989;SDS011;22898;52.102;5.776;2023-10-19T04:50:11;4.20;;;2.00;;
36989;SDS011;22898;52.102;5.776;2023-10-19T04:52:37;3.28;;;1.60;;
36989;SDS011;22898;52.102;5.776;2023-10-19T04:55:03;2.83;;;1.60;;
36989;SDS011;22898;52.102;5.776;2023-10-19T04:57:31;2.63;;;1.52;;
36989;SDS011;22898;52.102;5.776;2023-10-19T04:59:57;3.28;;;1.50;;
36989;SDS011;22898;52.102;5.776;2023-10-19T05:02:23;2.78;;;1.45;;
36989;SDS011;22898;52.102;5.776;2023-10-19T05:04:48;11.38;;;1.73;;
36989;SDS011;22898;52.102;5.776;2023-10-19T05:07:14;2.63;;;1.45;;
36989;SDS011;22898;52.102;5.776;2023-10-19T05:09:44;2.75;;;1.40;;
36989;SDS011;22898;52.102;5.776;2023-10-19T05:12:10;5.50;;;1.80;;
36989;SDS011;22898;52.102;5.776;2023-10-19T05:14:36;3.88;;;1.50;;
36989;SDS011;22898;52.102;5.776;2023-10-19T05:17:03;1.67;;;1.50;;
36989;SDS011;22898;52.102;5.776;2023-10-19T05:19:34;2.60;;;1.55;;
36989;SDS011;22898;52.102;5.776;2023-10-19T05:22:01;1.88;;;1.48;;
36989;SDS011;22898;52.102;5.776;2023-10-19T05:24:28;2.45;;;1.60;;
36989;SDS011;22898;52.102;5.776;2023-10-19T05:26:54;2.55;;;1.67;;
36989;SDS011;22898;52.102;5.776;2023-10-19T05:29:21;3.15;;;1.63;;
36989;SDS011;22898;52.102;5.776;2023-10-19T05:31:50;2.88;;;1.65;;
36989;SDS011;22898;52.102;5.776;2023-10-19T05:34:21;2.67;;;1.70;;
36989;SDS011;22898;52.102;5.776;2023-10-19T05:36:47;2.67;;;1.70;;
36989;SDS011;22898;52.102;5.776;2023-10-19T05:39:16;4.53;;;1.90;;
36989;SDS011;22898;52.102;5.776;2023-10-19T05:41:42;4.00;;;1.70;;
36989;SDS011;22898;52.102;5.776;2023-10-19T05:44:08;4.15;;;2.28;;
36989;SDS011;22898;52.102;5.776;2023-10-19T05:46:33;5.43;;;2.38;;
36989;SDS011;22898;52.102;5.776;2023-10-19T05:48:59;4.28;;;2.10;;
36989;SDS011;22898;52.102;5.776;2023-10-19T05:51:28;2.50;;;1.63;;
36989;SDS011;22898;52.102;5.776;2023-10-19T05:53:54;2.50;;;1.88;;
36989;SDS011;22898;52.102;5.776;2023-10-19T05:56:26;5.95;;;2.03;;
36989;SDS011;22898;52.102;5.776;2023-10-19T05:58:52;2.65;;;1.80;;
36989;SDS011;22898;52.102;5.776;2023-10-19T06:01:18;4.00;;;1.80;;
36989;SDS011;22898;52.102;5.776;2023-10-19T06:03:44;2.97;;;1.80;;
36989;SDS011;22898;52.102;5.776;2023-10-19T06:06:10;5.63;;;1.92;;
36989;SDS011;22898;52.102;5.776;2023-10-19T06:08:36;4.20;;;1.90;;
36989;SDS011;22898;52.102;5.776;2023-10-19T06:11:02;2.30;;;1.48;;
36989;SDS011;22898;52.102;5.776;2023-10-19T06:13:27;5.32;;;2.40;;
36989;SDS011;22898;52.102;5.776;2023-10-19T06:15:54;3.80;;;2.42;;
36989;SDS011;22898;52.102;5.776;2023-10-19T06:18:20;3.05;;;1.92;;
36989;SDS011;22898;52.102;5.776;2023-10-19T06:20:46;2.20;;;1.63;;
36989;SDS011;22898;52.102;5.776;2023-10-19T06:23:13;4.60;;;2.00;;
36989;SDS011;22898;52.102;5.776;2023-10-19T06:25:38;3.88;;;1.92;;
36989;SDS011;22898;52.102;5.776;2023-10-19T06:28:04;4.95;;;2.30;;
36989;SDS011;22898;52.102;5.776;2023-10-19T06:30:30;4.53;;;1.70;;
36989;SDS011;22898;52.102;5.776;2023-10-19T06:32:57;2.85;;;2.08;;
36989;SDS011;22898;52.102;5.776;2023-10-19T06:35:28;3.25;;;2.20;;
36989;SDS011;22898;52.102;5.776;2023-10-19T06:37:57;9.93;;;4.15;;
36989;SDS011;22898;52.102;5.776;2023-10-19T06:40:27;8.07;;;4.28;;
36989;SDS011;22898;52.102;5.776;2023-10-19T06:42:57;7.78;;;4.18;;
36989;SDS011;22898;52.102;5.776;2023-10-19T06:45:23;8.13;;;5.45;;
36989;SDS011;22898;52.102;5.776;2023-10-19T06:47:54;5.68;;;4.13;;
36989;SDS011;22898;52.102;5.776;2023-10-19T06:50:21;8.85;;;3.53;;
36989;SDS011;22898;52.102;5.776;2023-10-19T06:52:48;7.50;;;4.10;;
36989;SDS011;22898;52.102;5.776;2023-10-19T06:55:15;5.22;;;2.97;;
36989;SDS011;22898;52.102;5.776;2023-10-19T06:57:44;8.15;;;2.83;;
36989;SDS011;22898;52.102;5.776;2023-10-19T07:00:14;4.80;;;3.35;;
36989;SDS011;22898;52.102;5.776;2023-10-19T07:02:44;11.48;;;6.28;;
36989;SDS011;22898;52.102;5.776;2023-10-19T07:05:17;15.07;;;7.18;;
36989;SDS011;22898;52.102;5.776;2023-10-19T07:07:46;6.05;;;3.63;;
36989;SDS011;22898;52.102;5.776;2023-10-19T07:10:12;9.15;;;3.17;;
36989;SDS011;22898;52.102;5.776;2023-10-19T07:12:39;11.30;;;5.55;;
36989;SDS011;22898;52.102;5.776;2023-10-19T07:15:07;5.88;;;3.10;;
36989;SDS011;22898;52.102;5.776;2023-10-19T07:17:34;2.72;;;1.88;;
36989;SDS011;22898;52.102;5.776;2023-10-19T07:20:00;2.83;;;1.83;;
36989;SDS011;22898;52.102;5.776;2023-10-19T07:22:28;3.78;;;1.85;;
36989;SDS011;22898;52.102;5.776;2023-10-19T07:24:53;3.47;;;1.65;;
36989;SDS011;22898;52.102;5.776;2023-10-19T07:27:20;3.78;;;2.10;;
36989;SDS011;22898;52.102;5.776;2023-10-19T07:29:46;3.33;;;1.52;;
36989;SDS011;22898;52.102;5.776;2023-10-19T07:32:13;2.45;;;1.45;;
36989;SDS011;22898;52.102;5.776;2023-10-19T07:34:39;2.90;;;1.65;;
36989;SDS011;22898;52.102;5.776;2023-10-19T07:37:04;2.97;;;1.58;;
36989;SDS011;22898;52.102;5.776;2023-10-19T07:39:32;5.35;;;2.05;;
36989;SDS011;22898;52.102;5.776;2023-10-19T07:41:59;2.30;;;1.30;;
36989;SDS011;22898;52.102;5.776;2023-10-19T07:44:24;5.28;;;1.65;;
36989;SDS011;22898;52.102;5.776;2023-10-19T07:46:50;4.40;;;1.75;;
36989;SDS011;22898;52.102;5.776;2023-10-19T07:49:17;4.70;;;1.63;;
36989;SDS011;22898;52.102;5.776;2023-10-19T07:51:46;2.90;;;1.52;;
36989;SDS011;22898;52.102;5.776;2023-10-19T07:54:12;2.50;;;1.52;;
36989;SDS011;22898;52.102;5.776;2023-10-19T07:56:38;3.67;;;2.00;;
36989;SDS011;22898;52.102;5.776;2023-10-19T07:59:04;5.75;;;1.50;;
36989;SDS011;22898;52.102;5.776;2023-10-19T08:01:31;4.97;;;1.70;;
36989;SDS011;22898;52.102;5.776;2023-10-19T08:03:57;2.58;;;2.05;;
36989;SDS011;22898;52.102;5.776;2023-10-19T08:06:23;5.15;;;2.03;;
36989;SDS011;22898;52.102;5.776;2023-10-19T08:08:48;1.83;;;1.45;;
36989;SDS011;22898;52.102;5.776;2023-10-19T08:11:15;1.52;;;1.40;;
36989;SDS011;22898;52.102;5.776;2023-10-19T08:13:41;1.73;;;1.42;;
36989;SDS011;22898;52.102;5.776;2023-10-19T08:16:07;2.13;;;1.52;;
36989;SDS011;22898;52.102;5.776;2023-10-19T08:18:33;1.80;;;1.50;;
36989;SDS011;22898;52.102;5.776;2023-10-19T08:21:00;3.35;;;1.45;;
36989;SDS011;22898;52.102;5.776;2023-10-19T08:23:27;2.38;;;1.50;;
36989;SDS011;22898;52.102;5.776;2023-10-19T08:25:53;2.97;;;1.33;;
36989;SDS011;22898;52.102;5.776;2023-10-19T08:28:19;5.65;;;1.58;;
36989;SDS011;22898;52.102;5.776;2023-10-19T08:30:46;4.93;;;1.58;;
36989;SDS011;22898;52.102;5.776;2023-10-19T08:33:21;3.53;;;1.45;;
36989;SDS011;22898;52.102;5.776;2023-10-19T08:35:50;3.78;;;1.60;;
36989;SDS011;22898;52.102;5.776;2023-10-19T08:38:17;3.00;;;1.48;;
36989;SDS011;22898;52.102;5.776;2023-10-19T08:40:42;1.38;;;1.05;;
36989;SDS011;22898;52.102;5.776;2023-10-19T08:43:08;1.55;;;1.30;;
36989;SDS011;22898;52.102;5.776;2023-10-19T08:45:38;5.43;;;1.67;;
36989;SDS011;22898;52.102;5.776;2023-10-19T08:48:04;2.97;;;1.20;;
36989;SDS011;22898;52.102;5.776;2023-10-19T08:50:33;1.98;;;1.33;;
36989;SDS011;22898;52.102;5.776;2023-10-19T08:53:01;6.07;;;1.30;;
36989;SDS011;22898;52.102;5.776;2023-10-19T08:55:28;1.80;;;1.23;;
36989;SDS011;22898;52.102;5.776;2023-10-19T08:57:55;4.32;;;1.30;;
36989;SDS011;22898;52.102;5.776;2023-10-19T09:00:23;2.42;;;1.33;;
36989;SDS011;22898;52.102;5.776;2023-10-19T09:02:52;0.80;;;0.80;;
36989;SDS011;22898;52.102;5.776;2023-10-19T09:05:20;1.98;;;1.45;;
36989;SDS011;22898;52.102;5.776;2023-10-19T09:07:51;2.72;;;1.30;;
36989;SDS011;22898;52.102;5.776;2023-10-19T09:10:23;5.55;;;1.13;;
36989;SDS011;22898;52.102;5.776;2023-10-19T09:13:03;8.05;;;1.52;;
36989;SDS011;22898;52.102;5.776;2023-10-19T09:15:33;6.15;;;1.60;;
36989;SDS011;22898;52.102;5.776;2023-10-19T09:18:13;2.95;;;1.20;;
36989;SDS011;22898;52.102;5.776;2023-10-19T09:20:48;3.13;;;1.15;;
36989;SDS011;22898;52.102;5.776;2023-10-19T09:23:24;1.90;;;1.20;;
36989;SDS011;22898;52.102;5.776;2023-10-19T09:25:52;2.45;;;1.90;;
36989;SDS011;22898;52.102;5.776;2023-10-19T09:28:18;3.38;;;1.17;;
36989;SDS011;22898;52.102;5.776;2023-10-19T09:30:44;1.65;;;0.98;;
36989;SDS011;22898;52.102;5.776;2023-10-19T09:33:12;2.47;;;1.10;;
36989;SDS011;22898;52.102;5.776;2023-10-19T09:35:42;2.42;;;1.55;;
36989;SDS011;22898;52.102;5.776;2023-10-19T09:38:15;5.07;;;1.17;;
36989;SDS011;22898;52.102;5.776;2023-10-19T09:40:41;2.95;;;1.10;;
36989;SDS011;22898;52.102;5.776;2023-10-19T09:43:08;4.13;;;1.48;;
36989;SDS011;22898;52.102;5.776;2023-10-19T09:45:41;3.53;;;1.08;;
36989;SDS011;22898;52.102;5.776;2023-10-19T09:48:11;4.30;;;1.30;;
36989;SDS011;22898;52.102;5.776;2023-10-19T09:50:42;5.18;;;1.30;;
36989;SDS011;22898;52.102;5.776;2023-10-19T09:53:09;3.03;;;1.10;;
36989;SDS011;22898;52.102;5.776;2023-10-19T09:55:37;4.18;;;1.25;;
36989;SDS011;22898;52.102;5.776;2023-10-19T09:58:06;4.50;;;1.33;;
36989;SDS011;22898;52.102;5.776;2023-10-19T10:00:42;5.35;;;1.60;;
36989;SDS011;22898;52.102;5.776;2023-10-19T10:03:31;2.38;;;1.20;;
36989;SDS011;22898;52.102;5.776;2023-10-19T10:06:12;3.42;;;1.80;;
36989;SDS011;22898;52.102;5.776;2023-10-19T10:08:45;4.43;;;1.30;;
36989;SDS011;22898;52.102;5.776;2023-10-19T10:13:48;2.25;;;0.98;;
36989;SDS011;22898;52.102;5.776;2023-10-19T10:16:17;3.58;;;1.17;;
36989;SDS011;22898;52.102;5.776;2023-10-19T10:18:45;3.40;;;1.05;;
36989;SDS011;22898;52.102;5.776;2023-10-19T10:21:22;3.92;;;1.30;;
36989;SDS011;22898;52.102;5.776;2023-10-19T10:23:52;2.92;;;1.15;;
36989;SDS011;22898;52.102;5.776;2023-10-19T10:26:21;2.10;;;1.30;;
36989;SDS011;22898;52.102;5.776;2023-10-19T10:29:07;5.90;;;1.77;;
36989;SDS011;22898;52.102;5.776;2023-10-19T10:31:59;4.35;;;1.42;;
36989;SDS011;22898;52.102;5.776;2023-10-19T10:37:03;4.88;;;0.98;;
36989;SDS011;22898;52.102;5.776;2023-10-19T10:39:30;4.57;;;1.92;;
36989;SDS011;22898;52.102;5.776;2023-10-19T10:42:00;8.82;;;1.35;;
36989;SDS011;22898;52.102;5.776;2023-10-19T10:44:37;5.28;;;1.30;;
36989;SDS011;22898;52.102;5.776;2023-10-19T10:47:07;7.25;;;1.67;;
36989;SDS011;22898;52.102;5.776;2023-10-19T10:49:45;4.28;;;1.40;;
36989;SDS011;22898;52.102;5.776;2023-10-19T10:52:32;3.97;;;1.77;;
36989;SDS011;22898;52.102;5.776;2023-10-19T10:55:11;9.07;;;1.50;;
36989;SDS011;22898;52.102;5.776;2023-10-19T10:57:38;4.20;;;1.77;;
36989;SDS011;22898;52.102;5.776;2023-10-19T11:00:08;3.22;;;1.25;;
36989;SDS011;22898;52.102;5.776;2023-10-19T11:02:40;2.55;;;1.25;;
36989;SDS011;22898;52.102;5.776;2023-10-19T11:05:11;3.15;;;1.20;;
36989;SDS011;22898;52.102;5.776;2023-10-19T11:08:03;5.40;;;1.65;;
36989;SDS011;22898;52.102;5.776;2023-10-19T11:10:41;6.93;;;1.95;;
36989;SDS011;22898;52.102;5.776;2023-10-19T11:13:11;2.20;;;1.40;;
36989;SDS011;22898;52.102;5.776;2023-10-19T11:15:39;1.42;;;1.17;;
36989;SDS011;22898;52.102;5.776;2023-10-19T11:18:27;1.98;;;1.00;;
36989;SDS011;22898;52.102;5.776;2023-10-19T11:20:56;2.78;;;1.13;;
36989;SDS011;22898;52.102;5.776;2023-10-19T11:26:02;4.25;;;1.40;;
36989;SDS011;22898;52.102;5.776;2023-10-19T11:28:30;4.95;;;1.58;;
36989;SDS011;22898;52.102;5.776;2023-10-19T11:31:10;4.28;;;1.40;;
36989;SDS011;22898;52.102;5.776;2023-10-19T11:33:43;3.45;;;1.13;;
36989;SDS011;22898;52.102;5.776;2023-10-19T11:36:16;3.70;;;1.10;;
36989;SDS011;22898;52.102;5.776;2023-10-19T11:38:43;3.30;;;1.10;;
36989;SDS011;22898;52.102;5.776;2023-10-19T11:41:10;5.35;;;1.25;;
36989;SDS011;22898;52.102;5.776;2023-10-19T11:43:44;3.08;;;1.40;;
36989;SDS011;22898;52.102;5.776;2023-10-19T11:46:11;6.18;;;1.88;;
36989;SDS011;22898;52.102;5.776;2023-10-19T11:48:37;4.78;;;1.50;;
36989;SDS011;22898;52.102;5.776;2023-10-19T11:51:04;2.30;;;1.17;;
36989;SDS011;22898;52.102;5.776;2023-10-19T11:53:34;4.40;;;1.70;;
36989;SDS011;22898;52.102;5.776;2023-10-19T11:56:02;3.45;;;1.30;;
36989;SDS011;22898;52.102;5.776;2023-10-19T11:58:29;4.85;;;1.50;;
36989;SDS011;22898;52.102;5.776;2023-10-19T12:00:57;8.73;;;2.72;;
36989;SDS011;22898;52.102;5.776;2023-10-19T12:03:24;6.82;;;1.48;;
36989;SDS011;22898;52.102;5.776;2023-10-19T12:05:50;3.42;;;1.40;;
36989;SDS011;22898;52.102;5.776;2023-10-19T12:08:18;4.45;;;1.67;;
36989;SDS011;22898;52.102;5.776;2023-10-19T12:10:44;2.30;;;1.60;;
36989;SDS011;22898;52.102;5.776;2023-10-19T12:13:09;4.22;;;1.40;;
36989;SDS011;22898;52.102;5.776;2023-10-19T12:15:35;3.92;;;1.23;;
36989;SDS011;22898;52.102;5.776;2023-10-19T12:18:01;3.55;;;2.03;;
36989;SDS011;22898;52.102;5.776;2023-10-19T12:20:28;4.35;;;1.40;;
36989;SDS011;22898;52.102;5.776;2023-10-19T12:22:56;2.55;;;1.20;;
36989;SDS011;22898;52.102;5.776;2023-10-19T12:25:23;9.27;;;1.60;;
36989;SDS011;22898;52.102;5.776;2023-10-19T12:27:57;7.68;;;1.50;;
36989;SDS011;22898;52.102;5.776;2023-10-19T12:30:23;3.35;;;1.67;;
36989;SDS011;22898;52.102;5.776;2023-10-19T12:32:53;4.03;;;1.33;;
36989;SDS011;22898;52.102;5.776;2023-10-19T12:35:19;4.20;;;1.33;;
36989;SDS011;22898;52.102;5.776;2023-10-19T12:37:49;7.00;;;1.20;;
36989;SDS011;22898;52.102;5.776;2023-10-19T12:40:21;2.78;;;1.27;;
36989;SDS011;22898;52.102;5.776;2023-10-19T12:42:56;5.15;;;1.20;;
36989;SDS011;22898;52.102;5.776;2023-10-19T12:45:23;1.33;;;1.20;;
36989;SDS011;22898;52.102;5.776;2023-10-19T12:47:49;2.88;;;1.10;;
36989;SDS011;22898;52.102;5.776;2023-10-19T12:50:17;5.93;;;1.20;;
36989;SDS011;22898;52.102;5.776;2023-10-19T12:52:47;6.75;;;1.73;;
36989;SDS011;22898;52.102;5.776;2023-10-19T12:55:14;3.50;;;1.30;;
36989;SDS011;22898;52.102;5.776;2023-10-19T12:57:41;3.15;;;1.75;;
36989;SDS011;22898;52.102;5.776;2023-10-19T13:00:07;2.22;;;1.15;;
36989;SDS011;22898;52.102;5.776;2023-10-19T13:02:49;2.88;;;1.10;;
36989;SDS011;22898;52.102;5.776;2023-10-19T13:05:15;3.45;;;1.23;;
36989;SDS011;22898;52.102;5.776;2023-10-19T13:07:43;1.65;;;1.17;;
36989;SDS011;22898;52.102;5.776;2023-10-19T13:10:09;5.25;;;1.75;;
36989;SDS011;22898;52.102;5.776;2023-10-19T13:12:36;5.32;;;1.77;;
36989;SDS011;22898;52.102;5.776;2023-10-19T13:15:03;6.22;;;1.67;;
36989;SDS011;22898;52.102;5.776;2023-10-19T13:17:32;3.85;;;1.40;;
36989;SDS011;22898;52.102;5.776;2023-10-19T13:20:00;5.95;;;1.40;;
36989;SDS011;22898;52.102;5.776;2023-10-19T13:22:26;2.85;;;1.65;;
36989;SDS011;22898;52.102;5.776;2023-10-19T13:24:52;8.13;;;1.80;;
36989;SDS011;22898;52.102;5.776;2023-10-19T13:27:17;4.47;;;1.45;;
36989;SDS011;22898;52.102;5.776;2023-10-19T13:29:44;3.58;;;1.38;;
36989;SDS011;22898;52.102;5.776;2023-10-19T13:32:11;5.82;;;1.58;;
36989;SDS011;22898;52.102;5.776;2023-10-19T13:34:37;6.10;;;1.60;;
36989;SDS011;22898;52.102;5.776;2023-10-19T13:37:05;4.10;;;1.27;;
36989;SDS011;22898;52.102;5.776;2023-10-19T13:39:33;4.00;;;1.60;;
36989;SDS011;22898;52.102;5.776;2023-10-19T13:41:58;10.52;;;2.58;;
36989;SDS011;22898;52.102;5.776;2023-10-19T13:44:24;3.67;;;1.67;;
36989;SDS011;22898;52.102;5.776;2023-10-19T13:46:51;2.90;;;1.50;;
36989;SDS011;22898;52.102;5.776;2023-10-19T13:49:19;4.72;;;1.50;;
36989;SDS011;22898;52.102;5.776;2023-10-19T13:51:47;4.40;;;1.58;;
36989;SDS011;22898;52.102;5.776;2023-10-19T13:54:13;4.03;;;1.30;;
36989;SDS011;22898;52.102;5.776;2023-10-19T13:56:39;4.35;;;1.40;;
36989;SDS011;22898;52.102;5.776;2023-10-19T13:59:04;4.45;;;1.52;;
36989;SDS011;22898;52.102;5.776;2023-10-19T14:01:30;2.38;;;1.45;;
36989;SDS011;22898;52.102;5.776;2023-10-19T14:03:56;1.95;;;1.35;;
36989;SDS011;22898;52.102;5.776;2023-10-19T14:06:21;3.30;;;1.83;;
36989;SDS011;22898;52.102;5.776;2023-10-19T14:08:48;7.78;;;1.67;;
36989;SDS011;22898;52.102;5.776;2023-10-19T14:11:14;3.97;;;1.63;;
36989;SDS011;22898;52.102;5.776;2023-10-19T14:13:40;2.67;;;1.58;;
36989;SDS011;22898;52.102;5.776;2023-10-19T14:16:07;3.10;;;1.45;;
36989;SDS011;22898;52.102;5.776;2023-10-19T14:18:34;3.58;;;1.38;;
36989;SDS011;22898;52.102;5.776;2023-10-19T14:21:00;3.88;;;1.35;;
36989;SDS011;22898;52.102;5.776;2023-10-19T14:23:35;3.72;;;1.70;;
36989;SDS011;22898;52.102;5.776;2023-10-19T14:26:03;6.63;;;1.85;;
36989;SDS011;22898;52.102;5.776;2023-10-19T14:28:29;11.18;;;2.15;;
36989;SDS011;22898;52.102;5.776;2023-10-19T14:30:54;6.60;;;1.40;;
36989;SDS011;22898;52.102;5.776;2023-10-19T14:33:21;3.90;;;1.85;;
36989;SDS011;22898;52.102;5.776;2023-10-19T14:35:47;6.90;;;2.10;;
36989;SDS011;22898;52.102;5.776;2023-10-19T14:38:13;7.15;;;1.80;;
36989;SDS011;22898;52.102;5.776;2023-10-19T14:40:40;7.35;;;1.50;;
36989;SDS011;22898;52.102;5.776;2023-10-19T14:43:10;4.30;;;1.85;;
36989;SDS011;22898;52.102;5.776;2023-10-19T14:45:35;3.67;;;1.50;;
36989;SDS011;22898;52.102;5.776;2023-10-19T14:48:01;2.70;;;1.38;;
36989;SDS011;22898;52.102;5.776;2023-10-19T14:50:29;3.85;;;1.50;;
36989;SDS011;22898;52.102;5.776;2023-10-19T14:52:55;7.80;;;1.75;;
36989;SDS011;22898;52.102;5.776;2023-10-19T14:55:21;3.55;;;1.50;;
36989;SDS011;22898;52.102;5.776;2023-10-19T14:57:49;4.47;;;1.58;;
36989;SDS011;22898;52.102;5.776;2023-10-19T15:00:20;3.35;;;1.33;;
36989;SDS011;22898;52.102;5.776;2023-10-19T15:02:48;4.10;;;1.42;;
36989;SDS011;22898;52.102;5.776;2023-10-19T15:05:15;6.65;;;2.50;;
36989;SDS011;22898;52.102;5.776;2023-10-19T15:07:41;3.00;;;1.48;;
36989;SDS011;22898;52.102;5.776;2023-10-19T15:10:12;2.75;;;1.40;;
36989;SDS011;22898;52.102;5.776;2023-10-19T15:12:41;5.53;;;2.03;;